METAR Data
IDs: Format: Raw Decoded Include TAF

Data at: 1609 UTC 18 Feb 2019

METAR for:KCNC (Chariton Muni, IA, US)
Text:KCNC 181555Z AUTO 33006KT 10SM CLR M08/M09 A3040 RMK AO2
Temperature: -8.0°C ( 18°F)
Dewpoint: -9.0°C ( 16°F) [RH = 92%]
Pressure (altimeter):30.40 inches Hg (1029.5 mb)
Winds:from the NNW (330 degrees) at 7 MPH (6 knots; 3.1 m/s)
Visibility:10 or more sm (16+ km)
Ceiling:at least 12,000 feet AGL
Clouds:sky clear below 12,000 feet AGL
QC Flag:automated observation with no human augmentation